Time;durP1;ratioP1;P1;durP2;ratioP2;P2;SDS_P1;SDS_P2;PMS_P1;PMS_P2;Temp;Humidity;BMP_temperature;BMP_pressure;BME280_temperature;BME280_humidity;BME280_pressure;Samples;Min_cycle;Max_cycle;Signal;HPM_P1;HPM_P2
2021/07/06 00:01:16;;;;;;;6.43;2.60;;;;;;;15.53;100.00;100429.63;5073336;28;20279;-69
2021/07/06 00:03:41;;;;;;;3.07;2.10;;;;;;;15.48;100.00;100426.47;5073653;28;20179;-69
2021/07/06 00:06:06;;;;;;;2.90;2.10;;;;;;;15.46;100.00;100428.41;5055483;28;20199;-69
2021/07/06 00:08:32;;;;;;;3.47;2.50;;;;;;;15.42;100.00;100427.81;5070542;28;20245;-69
2021/07/06 00:10:57;;;;;;;4.13;2.13;;;;;;;15.40;100.00;100419.00;5055072;28;20244;-69
2021/07/06 00:13:22;;;;;;;2.77;2.10;;;;;;;15.37;100.00;100429.16;5052699;28;20179;-69
2021/07/06 00:15:48;;;;;;;3.50;2.40;;;;;;;15.34;100.00;100427.56;5055436;28;20172;-70
2021/07/06 00:18:14;;;;;;;5.23;2.47;;;;;;;15.32;100.00;100430.38;5070682;28;20175;-68
2021/07/06 00:20:39;;;;;;;4.80;2.20;;;;;;;15.25;100.00;100429.16;5055197;28;20229;-69
2021/07/06 00:23:05;;;;;;;9.10;2.57;;;;;;;15.23;100.00;100417.63;5055834;28;20656;-68
2021/07/06 00:25:31;;;;;;;5.70;2.70;;;;;;;15.17;100.00;100420.81;5055032;28;20688;-69
2021/07/06 00:27:56;;;;;;;2.80;2.30;;;;;;;15.17;100.00;100415.44;5070683;28;20214;-69
2021/07/06 00:30:23;;;;;;;3.97;2.30;;;;;;;15.20;100.00;100425.94;5053670;28;20171;-68
2021/07/06 00:32:48;;;;;;;4.33;2.13;;;;;;;15.19;100.00;100418.00;5054715;28;20669;-68
2021/07/06 00:35:14;;;;;;;8.20;2.57;;;;;;;15.12;100.00;100411.41;5071363;28;20251;-68
2021/07/06 00:37:39;;;;;;;4.87;2.53;;;;;;;15.06;100.00;100422.63;5070785;28;20191;-68
2021/07/06 00:40:06;;;;;;;5.83;2.30;;;;;;;15.00;100.00;100416.75;5054696;28;20179;-69
2021/07/06 00:42:32;;;;;;;4.30;2.43;;;;;;;14.99;100.00;100425.81;5069931;28;20525;-69
2021/07/06 00:44:58;;;;;;;4.03;2.40;;;;;;;15.00;100.00;100422.13;5070113;28;20184;-69
2021/07/06 00:47:34;;;;;;;4.80;2.37;;;;;;;15.03;100.00;100418.34;5069738;28;20203;-69
2021/07/06 00:50:00;;;;;;;10.20;2.53;;;;;;;15.04;100.00;100436.19;5053026;28;20270;-68
2021/07/06 00:52:25;;;;;;;5.63;2.70;;;;;;;15.03;100.00;100429.09;5053173;28;20250;-69
2021/07/06 00:54:51;;;;;;;4.80;2.87;;;;;;;15.05;100.00;100428.97;5069698;28;20176;-70
2021/07/06 00:57:16;;;;;;;6.57;2.90;;;;;;;15.04;100.00;100428.13;5054268;28;20655;-69
2021/07/06 00:59:41;;;;;;;10.40;3.00;;;;;;;15.01;100.00;100429.22;5069753;28;20174;-69
2021/07/06 01:02:07;;;;;;;3.93;2.67;;;;;;;14.98;100.00;100429.47;5054155;28;20266;-68
2021/07/06 01:04:32;;;;;;;3.67;2.50;;;;;;;15.02;100.00;100430.94;5054443;28;20203;-69
2021/07/06 01:06:58;;;;;;;14.00;2.60;;;;;;;15.02;100.00;100428.25;5069816;28;20199;-69
2021/07/06 01:09:23;;;;;;;9.90;2.53;;;;;;;14.90;100.00;100428.34;5054496;28;20204;-68
2021/07/06 01:11:48;;;;;;;4.90;2.50;;;;;;;14.90;100.00;100428.34;5054442;28;20569;-69
2021/07/06 01:14:16;;;;;;;7.23;2.30;;;;;;;14.89;100.00;100434.69;5069456;28;20269;-68
2021/07/06 01:16:45;;;;;;;9.37;2.60;;;;;;;14.86;100.00;100424.16;5053801;28;20249;-68
2021/07/06 01:19:14;;;;;;;3.73;2.87;;;;;;;14.85;100.00;100412.56;5069329;28;20172;-69
2021/07/06 01:21:39;;;;;;;3.17;2.60;;;;;;;14.92;100.00;100415.66;5053950;28;20200;-69
2021/07/06 01:24:04;;;;;;;8.13;2.80;;;;;;;14.85;100.00;100417.94;5053397;28;20191;-69
2021/07/06 01:26:30;;;;;;;4.67;2.80;;;;;;;14.81;100.00;100418.28;5054049;28;20207;-69
2021/07/06 01:28:55;;;;;;;7.07;2.50;;;;;;;14.74;100.00;100411.69;5053863;28;20200;-69
2021/07/06 01:31:20;;;;;;;5.67;2.77;;;;;;;14.65;100.00;100413.25;5053645;28;20571;-69
2021/07/06 01:33:46;;;;;;;5.90;2.63;;;;;;;14.58;100.00;100399.44;5053611;28;20307;-69
2021/07/06 01:36:11;;;;;;;4.73;2.90;;;;;;;14.53;100.00;100408.81;5053446;28;20195;-68
2021/07/06 01:38:36;;;;;;;5.60;2.83;;;;;;;14.48;100.00;100401.09;5068964;28;20171;-68
2021/07/06 01:41:03;;;;;;;4.30;2.80;;;;;;;14.39;100.00;100401.75;5068687;28;20313;-69
2021/07/06 01:43:28;;;;;;;6.17;3.27;;;;;;;14.41;100.00;100399.81;5052195;28;20234;-68
2021/07/06 01:45:54;;;;;;;5.33;3.20;;;;;;;14.37;100.00;100403.72;5068901;28;20542;-69
2021/07/06 01:48:19;;;;;;;6.20;3.07;;;;;;;14.49;100.00;100396.56;5069066;28;20233;-69
2021/07/06 01:50:45;;;;;;;7.90;3.20;;;;;;;14.51;100.00;100400.88;5053691;28;20182;-68
2021/07/06 01:53:13;;;;;;;4.33;2.63;;;;;;;14.39;100.00;100397.25;5053252;28;20254;-69
2021/07/06 01:55:40;;;;;;;3.30;2.97;;;;;;;14.44;100.00;100404.13;5053439;28;20172;-69
2021/07/06 01:58:07;;;;;;;3.70;2.50;;;;;;;14.52;100.00;100401.75;5068426;28;20183;-69
2021/07/06 02:00:36;;;;;;;7.00;3.20;;;;;;;14.65;100.00;100391.75;5053390;28;20171;-68
2021/07/06 02:03:04;;;;;;;3.00;2.37;;;;;;;14.70;100.00;100395.81;5053173;28;20189;-68
2021/07/06 02:05:43;;;;;;;4.63;2.63;;;;;;;14.75;100.00;100399.97;5053341;28;20172;-68
2021/07/06 02:08:11;;;;;;;5.43;2.67;;;;;;;14.74;100.00;100390.19;5051704;28;20207;-69
2021/07/06 02:10:37;;;;;;;3.30;2.50;;;;;;;14.66;100.00;100397.03;5053176;28;20176;-70
2021/07/06 02:13:06;;;;;;;6.30;2.40;;;;;;;14.64;100.00;100398.09;5051871;28;20182;-68
2021/07/06 02:15:31;;;;;;;12.10;2.87;;;;;;;14.63;100.00;100377.59;5068373;28;20670;-69
2021/07/06 02:17:56;;;;;;;4.13;2.53;;;;;;;14.48;100.00;100373.38;5051541;28;20323;-68
2021/07/06 02:20:22;;;;;;;7.93;2.30;;;;;;;14.37;100.00;100371.50;5068379;28;20201;-68
2021/07/06 02:22:49;;;;;;;3.77;2.63;;;;;;;14.35;100.00;100378.81;5051595;28;20183;-68
2021/07/06 02:25:17;;;;;;;8.10;2.60;;;;;;;14.28;100.00;100377.56;5052001;28;20210;-68
2021/07/06 02:27:45;;;;;;;6.00;2.60;;;;;;;14.26;100.00;100379.50;5068219;28;20290;-68
2021/07/06 02:30:12;;;;;;;4.83;2.30;;;;;;;14.28;100.00;100382.94;5053606;28;20727;-69
2021/07/06 02:32:37;;;;;;;4.40;2.60;;;;;;;14.32;100.00;100379.03;5068968;28;20713;-69
2021/07/06 02:35:05;;;;;;;3.77;2.50;;;;;;;14.30;100.00;100381.84;5069189;28;20175;-68
2021/07/06 02:37:30;;;;;;;10.00;2.80;;;;;;;14.23;100.00;100367.19;5058538;28;20221;-69
2021/07/06 02:39:56;;;;;;;4.57;2.73;;;;;;;14.26;100.00;100379.50;5076850;28;20290;-69
2021/07/06 02:42:21;;;;;;;8.00;3.27;;;;;;;14.21;100.00;100376.31;5077301;28;20182;-69
2021/07/06 02:44:46;;;;;;;3.67;2.80;;;;;;;14.24;100.00;100382.31;5073191;28;20176;-69
2021/07/06 02:47:11;;;;;;;5.60;2.63;;;;;;;14.23;100.00;100385.97;5056647;28;20574;-69
2021/07/06 02:49:37;;;;;;;7.37;2.77;;;;;;;14.16;100.00;100389.22;5057841;28;20192;-68
2021/07/06 02:52:03;;;;;;;5.60;2.77;;;;;;;14.06;100.00;100400.63;5072838;28;20172;-68
2021/07/06 02:54:28;;;;;;;5.13;2.50;;;;;;;14.04;100.00;100396.34;5058857;28;20194;-68
2021/07/06 02:56:53;;;;;;;4.47;2.53;;;;;;;14.01;100.00;100394.75;5057600;28;20532;-69
2021/07/06 02:59:19;;;;;;;5.90;2.57;;;;;;;13.99;100.00;100396.69;5056830;28;20170;-69
2021/07/06 03:01:44;;;;;;;10.40;3.07;;;;;;;14.00;100.00;100397.53;5071964;28;20168;-70
2021/07/06 03:04:09;;;;;;;5.77;2.57;;;;;;;14.08;100.00;100397.81;5073010;28;20198;-69
2021/07/06 03:06:34;;;;;;;5.70;2.53;;;;;;;14.09;100.00;100399.53;5056632;28;20187;-69
2021/07/06 03:09:00;;;;;;;4.63;2.70;;;;;;;14.14;100.00;100392.03;5071648;28;20195;-68
2021/07/06 03:11:25;;;;;;;6.33;2.40;;;;;;;14.18;100.00;100392.66;5071513;28;20233;-68
2021/07/06 03:13:51;;;;;;;8.63;2.53;;;;;;;14.24;100.00;100394.88;5054828;28;20176;-68
2021/07/06 03:16:16;;;;;;;8.10;2.40;;;;;;;14.35;100.00;100406.50;5054775;28;20702;-69
2021/07/06 03:18:41;;;;;;;7.67;2.50;;;;;;;14.37;100.00;100407.25;5056078;28;20587;-69
2021/07/06 03:21:07;;;;;;;8.27;2.47;;;;;;;14.39;100.00;100397.25;5056130;28;20167;-69
2021/07/06 03:23:32;;;;;;;2.47;2.00;;;;;;;14.37;100.00;100393.81;5054682;28;20187;-69
2021/07/06 03:25:58;;;;;;;12.07;2.70;;;;;;;14.36;100.00;100392.13;5056104;28;20172;-69
2021/07/06 03:28:23;;;;;;;5.80;2.70;;;;;;;14.36;100.00;100389.44;5071710;28;20655;-68
2021/07/06 03:30:48;;;;;;;12.07;2.83;;;;;;;14.42;100.00;100392.63;5055900;28;20221;-68
2021/07/06 03:33:13;;;;;;;3.30;2.27;;;;;;;14.49;100.00;100388.53;5071505;28;20203;-68
2021/07/06 03:35:39;;;;;;;10.83;2.40;;;;;;;14.41;100.00;100415.91;5071141;28;20179;-68
2021/07/06 03:38:05;;;;;;;4.63;2.30;;;;;;;14.44;100.00;100385.34;5055904;28;20607;-68
2021/07/06 03:40:32;;;;;;;4.60;2.33;;;;;;;14.45;100.00;100382.53;5071347;28;20184;-68
2021/07/06 03:42:57;;;;;;;7.80;2.97;;;;;;;14.49;100.00;100385.84;5054632;28;20180;-69
2021/07/06 03:45:23;;;;;;;6.57;2.10;;;;;;;14.49;100.00;100386.69;5070992;28;20184;-68
2021/07/06 03:47:49;;;;;;;8.87;3.03;;;;;;;14.51;100.00;100384.78;5070547;28;20203;-68
2021/07/06 03:50:19;;;;;;;12.03;2.33;;;;;;;14.51;100.00;100390.16;5054019;28;20175;-69
2021/07/06 03:52:46;;;;;;;6.70;2.27;;;;;;;14.44;100.00;100388.88;5054051;28;20182;-69
2021/07/06 03:55:12;;;;;;;10.30;2.93;;;;;;;14.43;100.00;100387.16;5055327;28;20172;-69
2021/07/06 03:57:37;;;;;;;8.10;2.50;;;;;;;14.45;100.00;100377.16;5053823;28;20215;-69
2021/07/06 04:00:08;;;;;;;12.93;2.70;;;;;;;14.55;100.00;100371.97;5053815;28;20644;-69
2021/07/06 04:02:33;;;;;;;7.10;2.97;;;;;;;14.59;100.00;100376.13;5053958;28;20175;-69
2021/07/06 04:04:59;;;;;;;7.00;2.60;;;;;;;14.65;100.00;100372.97;5053635;28;20524;-69
2021/07/06 04:07:24;;;;;;;3.63;2.10;;;;;;;14.73;100.00;100362.47;5055263;28;20200;-69
2021/07/06 04:09:49;;;;;;;9.70;2.40;;;;;;;14.84;100.00;100367.00;5055182;28;20682;-68
2021/07/06 04:12:15;;;;;;;8.20;2.20;;;;;;;14.97;99.95;100376.69;5070448;28;20579;-69
2021/07/06 04:14:40;;;;;;;5.67;2.00;;;;;;;15.18;98.81;100365.22;5070886;28;20199;-69
2021/07/06 04:17:06;;;;;;;4.80;2.03;;;;;;;15.39;97.82;100368.03;5070219;28;20567;-69
2021/07/06 04:19:31;;;;;;;7.93;1.87;;;;;;;15.60;95.79;100369.88;5055143;28;20178;-69
2021/07/06 04:21:56;;;;;;;4.03;1.40;;;;;;;15.79;95.15;100380.00;5054517;28;20258;-68
2021/07/06 04:24:22;;;;;;;4.30;1.30;;;;;;;15.92;93.82;100369.94;5070373;28;20254;-69
2021/07/06 04:26:47;;;;;;;8.93;1.70;;;;;;;15.90;95.32;100365.66;5081285;22;20617;-77
2021/07/06 04:29:12;;;;;;;8.30;1.83;;;;;;;15.81;96.69;100366.41;5057046;28;20202;-76
2021/07/06 04:31:38;;;;;;;7.30;1.80;;;;;;;15.73;97.03;100364.38;5040423;28;20175;-76
2021/07/06 04:34:03;;;;;;;6.83;1.90;;;;;;;15.78;96.99;100370.22;5057283;28;20175;-76
2021/07/06 04:36:29;;;;;;;9.63;2.27;;;;;;;15.88;95.92;100370.31;5056914;28;20182;-76
2021/07/06 04:38:54;;;;;;;10.70;2.10;;;;;;;15.89;95.54;100374.72;5057266;28;20274;-76
2021/07/06 04:41:19;;;;;;;6.23;1.63;;;;;;;15.94;95.42;100373.34;5057481;28;20183;-76
2021/07/06 04:43:45;;;;;;;6.93;2.00;;;;;;;16.01;94.87;100370.19;5076092;28;20178;-77
2021/07/06 04:46:10;;;;;;;6.40;1.80;;;;;;;16.06;93.62;100368.81;5074763;28;20178;-75
2021/07/06 04:48:35;;;;;;;6.47;1.73;;;;;;;16.02;95.42;100364.66;5056665;28;20617;-78
2021/07/06 04:51:05;;;;;;;7.87;1.50;;;;;;;16.13;95.12;100369.16;5057866;28;20182;-77
2021/07/06 04:53:31;;;;;;;8.57;1.60;;;;;;;16.10;97.00;100366.72;5075016;28;20163;-77
2021/07/06 04:55:56;;;;;;;6.83;1.57;;;;;;;16.15;95.25;100359.97;5056620;28;20179;-76
2021/07/06 04:58:21;;;;;;;8.97;1.63;;;;;;;16.39;93.23;100372.34;5073571;28;20194;-76
2021/07/06 05:00:47;;;;;;;6.83;1.47;;;;;;;16.67;91.59;100368.19;5074853;28;20175;-76
2021/07/06 05:03:12;;;;;;;10.63;1.60;;;;;;;17.01;88.32;100363.44;5056450;28;20512;-76
2021/07/06 05:05:39;;;;;;;7.30;1.80;;;;;;;17.28;86.89;100361.03;5056686;28;20194;-77
2021/07/06 05:08:04;;;;;;;6.43;1.63;;;;;;;17.40;85.99;100359.06;5056297;28;20191;-67
2021/07/06 05:10:30;;;;;;;7.03;1.30;;;;;;;17.45;86.18;100467.44;5055586;28;20186;-67
2021/07/06 05:12:55;;;;;;;3.47;1.00;;;;;;;17.56;86.31;100353.19;5055680;28;20179;-67
2021/07/06 05:15:20;;;;;;;9.80;1.33;;;;;;;17.65;86.29;100363.16;5055234;28;20643;-68
2021/07/06 05:17:45;;;;;;;7.87;1.10;;;;;;;17.69;86.01;100356.50;5073334;28;20201;-68
2021/07/06 05:20:11;;;;;;;5.50;1.00;;;;;;;17.78;85.70;100363.78;5073968;28;20171;-67
2021/07/06 05:22:37;;;;;;;6.63;0.90;;;;;;;17.83;85.92;100360.66;5073950;28;20598;-67
2021/07/06 05:25:03;;;;;;;5.63;1.10;;;;;;;17.87;85.42;100360.25;5073325;28;20655;-67
2021/07/06 05:27:28;;;;;;;5.00;1.53;;;;;;;18.09;84.42;100345.63;5073202;28;20575;-68
2021/07/06 05:29:53;;;;;;;5.97;0.90;;;;;;;18.18;83.60;100346.63;5073539;28;20203;-68
2021/07/06 05:32:20;;;;;;;1.57;0.80;;;;;;;18.34;81.42;100350.50;5073508;28;20178;-71
2021/07/06 05:34:46;;;;;;;3.77;1.00;;;;;;;18.28;82.78;100351.06;5038857;28;20662;-72
2021/07/06 05:37:11;;;;;;;4.97;0.97;;;;;;;18.49;80.08;100348.19;5055815;28;20241;-72
2021/07/06 05:39:37;;;;;;;3.13;0.93;;;;;;;18.52;80.50;100350.59;5074028;28;20178;-71
2021/07/06 05:42:04;;;;;;;1.60;0.93;;;;;;;18.83;78.60;100347.75;5055696;28;20179;-71
2021/07/06 05:44:29;;;;;;;0.97;0.73;;;;;;;18.87;76.25;100344.59;5056280;28;20570;-72
2021/07/06 05:46:54;;;;;;;2.83;0.70;;;;;;;18.57;77.13;100344.78;5055565;28;20228;-70
2021/07/06 05:49:20;;;;;;;3.00;0.70;;;;;;;18.74;75.54;100344.06;5055346;28;20202;-72
2021/07/06 05:51:45;;;;;;;2.90;0.80;;;;;;;19.14;75.20;100345.69;5055430;28;20635;-70
2021/07/06 05:54:10;;;;;;;1.47;0.70;;;;;;;18.93;76.11;100348.56;5055448;28;20175;-71
2021/07/06 05:56:36;;;;;;;1.73;0.93;;;;;;;18.99;74.59;100340.75;5055363;28;20206;-71
2021/07/06 05:59:01;;;;;;;0.97;0.60;;;;;;;19.23;74.48;100336.66;5073057;28;20256;-71
2021/07/06 06:01:29;;;;;;;10.97;1.37;;;;;;;19.26;73.72;100334.50;5038585;28;20198;-70
2021/07/06 06:03:54;;;;;;;1.00;0.67;;;;;;;19.27;73.53;100332.66;5038865;28;20610;-71
2021/07/06 06:06:19;;;;;;;1.57;0.70;;;;;;;19.28;72.76;100334.38;5073112;28;20188;-70
2021/07/06 06:08:45;;;;;;;1.47;0.90;;;;;;;19.44;72.18;100337.31;5073376;28;20198;-70
2021/07/06 06:11:10;;;;;;;2.33;0.93;;;;;;;19.46;71.80;100331.72;5072930;28;20181;-71
2021/07/06 06:13:39;;;;;;;4.90;0.80;;;;;;;19.52;70.47;100340.09;5055248;28;20179;-72
2021/07/06 06:16:04;;;;;;;3.13;0.57;;;;;;;19.75;70.12;100337.03;5055079;28;20521;-71
2021/07/06 06:18:29;;;;;;;1.07;0.50;;;;;;;19.78;70.33;100339.44;5055073;28;20284;-70
2021/07/06 06:20:55;;;;;;;1.40;0.63;;;;;;;19.64;70.71;100335.34;5054787;28;20201;-70
2021/07/06 06:23:20;;;;;;;4.07;0.60;;;;;;;19.47;70.89;100325.31;5038812;28;20304;-71
2021/07/06 06:25:45;;;;;;;0.77;0.70;;;;;;;19.35;71.36;100320.13;5055841;28;20182;-71
2021/07/06 06:28:11;;;;;;;4.03;0.90;;;;;;;19.67;71.36;100308.84;5073064;28;20294;-70
2021/07/06 06:30:36;;;;;;;2.93;0.70;;;;;;;19.66;71.25;100315.25;5055077;28;20179;-71
2021/07/06 06:33:01;;;;;;;2.87;0.80;;;;;;;19.73;71.69;100322.78;5073265;28;20198;-70
2021/07/06 06:35:27;;;;;;;8.50;0.80;;;;;;;19.70;72.04;100320.34;5073413;28;20183;-71
2021/07/06 06:37:52;;;;;;;2.43;0.97;;;;;;;19.68;72.05;100310.53;5072887;28;20244;-71
2021/07/06 06:40:17;;;;;;;3.47;0.60;;;;;;;19.79;71.58;100306.78;5055030;28;20599;-70
2021/07/06 06:42:43;;;;;;;1.57;0.70;;;;;;;19.81;71.97;100315.59;5055349;28;20634;-71
2021/07/06 06:45:10;;;;;;;6.70;0.60;;;;;;;19.72;73.27;100310.25;5055218;28;20183;-71
2021/07/06 06:47:36;;;;;;;4.60;0.90;;;;;;;19.76;72.88;100301.69;5073323;28;20293;-71
2021/07/06 06:50:03;;;;;;;4.30;0.97;;;;;;;19.85;72.70;100310.72;5075310;28;20611;-71
2021/07/06 06:52:28;;;;;;;2.27;0.90;;;;;;;19.62;73.69;100300.31;5073399;28;20195;-71
2021/07/06 06:54:53;;;;;;;1.60;0.87;;;;;;;19.42;74.13;100306.84;5089544;28;20246;-71
2021/07/06 06:57:21;;;;;;;1.13;0.63;;;;;;;19.66;73.87;100319.81;5081360;28;20233;-71
2021/07/06 06:59:47;;;;;;;4.50;1.00;;;;;;;19.81;73.90;100325.59;5055294;28;20193;-72
2021/07/06 07:02:17;;;;;;;6.17;0.90;;;;;;;19.31;75.07;100328.66;5055304;28;20305;-71
2021/07/06 07:04:42;;;;;;;2.17;0.73;;;;;;;19.75;73.87;100331.59;5073260;28;20261;-71
2021/07/06 07:07:07;;;;;;;2.73;0.93;;;;;;;19.40;74.60;100324.22;5054598;28;20611;-71
2021/07/06 07:09:33;;;;;;;3.10;0.90;;;;;;;19.54;73.85;100343.53;5072826;28;20199;-72
2021/07/06 07:11:58;;;;;;;4.03;0.90;;;;;;;19.65;73.25;100335.19;5072546;28;20163;-72
2021/07/06 07:14:23;;;;;;;3.03;1.17;;;;;;;19.91;72.34;100335.34;5054656;28;20689;-72
2021/07/06 07:16:50;;;;;;;8.87;1.10;;;;;;;20.18;71.77;100333.59;5055025;28;20218;-73
2021/07/06 07:19:15;;;;;;;3.17;1.00;;;;;;;20.14;72.19;100327.63;5054489;28;20171;-72
2021/07/06 07:21:41;;;;;;;2.83;1.10;;;;;;;20.07;72.34;100331.06;5055160;28;20175;-71
2021/07/06 07:24:06;;;;;;;1.27;0.90;;;;;;;20.16;72.59;100320.19;5076283;28;20252;-71
2021/07/06 07:26:31;;;;;;;2.80;0.87;;;;;;;20.23;70.55;100318.56;5075843;28;20171;-71
2021/07/06 07:28:57;;;;;;;4.93;1.53;;;;;;;20.24;70.06;100295.88;5076183;28;20183;-71
2021/07/06 07:31:22;;;;;;;3.07;1.07;;;;;;;20.45;69.55;100292.03;5041700;28;20174;-71
2021/07/06 07:33:48;;;;;;;1.13;0.90;;;;;;;20.39;70.58;100295.31;5058360;28;20684;-71
2021/07/06 07:36:13;;;;;;;4.07;1.23;;;;;;;20.33;70.95;100301.34;5075944;28;20174;-71
2021/07/06 07:38:38;;;;;;;4.43;1.00;;;;;;;20.37;71.28;100302.75;5076153;28;20228;-71
2021/07/06 07:41:04;;;;;;;1.87;1.00;;;;;;;20.74;71.11;100288.97;5075693;28;20225;-72
2021/07/06 07:43:29;;;;;;;7.50;1.10;;;;;;;20.92;69.67;100284.38;5057749;28;20236;-71
2021/07/06 07:45:54;;;;;;;3.03;1.20;;;;;;;20.84;69.49;100297.88;5075795;28;20543;-71
2021/07/06 07:48:19;;;;;;;4.33;1.00;;;;;;;20.96;70.34;100302.03;5040988;28;20305;-71
2021/07/06 07:50:45;;;;;;;2.20;1.00;;;;;;;21.02;68.82;100295.09;5057789;28;20179;-71
2021/07/06 07:53:10;;;;;;;1.40;1.10;;;;;;;21.19;69.47;100281.47;5075567;28;20189;-71
2021/07/06 07:55:35;;;;;;;6.27;1.00;;;;;;;21.41;68.13;100290.91;5058011;28;20570;-72
2021/07/06 07:58:01;;;;;;;2.17;1.00;;;;;;;21.40;67.91;100297.34;5057839;28;20191;-72
2021/07/06 08:00:26;;;;;;;7.23;0.90;;;;;;;21.44;68.11;100296.00;5057983;28;20179;-72
2021/07/06 08:02:51;;;;;;;1.40;1.00;;;;;;;21.73;68.01;100300.16;5075950;28;20175;-72
2021/07/06 08:05:18;;;;;;;2.30;1.00;;;;;;;21.71;66.43;100292.19;5075668;28;20182;-71
2021/07/06 08:07:43;;;;;;;3.60;1.17;;;;;;;21.86;66.08;100289.66;5075446;28;20349;-71
2021/07/06 08:10:09;;;;;;;4.90;1.30;;;;;;;21.68;66.84;100299.81;5057228;28;20269;-72
2021/07/06 08:12:34;;;;;;;1.60;1.00;;;;;;;21.73;67.11;100294.75;5057458;28;20167;-72
2021/07/06 08:14:59;;;;;;;1.33;0.90;;;;;;;21.95;66.02;100290.56;5075317;28;20183;-72
2021/07/06 08:17:25;;;;;;;2.53;0.90;;;;;;;22.08;64.73;100297.22;5075228;28;20698;-72
2021/07/06 08:19:52;;;;;;;4.37;1.20;;;;;;;22.23;63.79;100291.94;5059904;28;20178;-72
2021/07/06 08:22:17;;;;;;;2.50;1.00;;;;;;;22.12;64.54;100306.72;5059316;28;20203;-72
2021/07/06 08:24:44;;;;;;;1.60;1.00;;;;;;;22.24;63.77;100290.09;5040998;28;20562;-72
2021/07/06 08:27:09;;;;;;;2.30;0.97;;;;;;;22.06;64.06;100299.25;5075084;28;20199;-71
2021/07/06 08:29:34;;;;;;;1.20;0.87;;;;;;;22.32;64.38;100301.81;5040375;28;20678;-72
2021/07/06 08:31:59;;;;;;;2.80;0.90;;;;;;;22.02;63.98;100295.16;5056881;28;20182;-71
2021/07/06 08:34:25;;;;;;;1.10;0.90;;;;;;;22.17;63.89;100297.22;5056411;28;20167;-71
2021/07/06 08:36:50;;;;;;;1.00;0.80;;;;;;;22.40;63.39;100306.41;5057707;28;20198;-72
2021/07/06 08:39:15;;;;;;;2.07;0.80;;;;;;;22.60;62.50;100298.75;5057110;28;20171;-72
2021/07/06 08:41:41;;;;;;;2.73;0.80;;;;;;;22.79;62.49;100303.81;5075364;28;20179;-72
2021/07/06 08:44:08;;;;;;;1.17;1.07;;;;;;;22.68;62.43;100302.31;5075362;28;20654;-71
2021/07/06 08:46:36;;;;;;;0.97;0.70;;;;;;;22.67;62.58;100300.63;5056788;28;20197;-72
2021/07/06 08:49:02;;;;;;;1.07;0.80;;;;;;;22.41;62.39;100305.41;5074713;28;20203;-71
2021/07/06 08:51:30;;;;;;;1.33;0.90;;;;;;;22.84;62.29;100309.63;5056942;28;20175;-72
2021/07/06 08:53:55;;;;;;;1.43;0.97;;;;;;;22.95;60.59;100317.41;5057205;28;20171;-72
2021/07/06 08:56:20;;;;;;;4.17;1.20;;;;;;;23.08;61.57;100314.19;5074456;28;20186;-71
2021/07/06 08:58:45;;;;;;;6.27;1.10;;;;;;;23.25;60.78;100304.91;5075028;28;20175;-71
2021/07/06 09:01:11;;;;;;;4.93;1.00;;;;;;;23.16;61.03;100314.16;5056534;28;20532;-71
2021/07/06 09:03:53;;;;;;;2.20;0.73;;;;;;;23.47;61.00;100327.81;5074392;28;20182;-72
2021/07/06 09:06:23;;;;;;;1.60;0.80;;;;;;;23.62;59.60;100322.50;5075112;28;20489;-72
2021/07/06 09:08:52;;;;;;;5.93;1.10;;;;;;;22.99;59.88;100312.47;5075012;28;20198;-73
2021/07/06 09:11:21;;;;;;;3.03;1.23;;;;;;;23.10;60.68;100316.72;5074725;28;20174;-72
2021/07/06 09:13:47;;;;;;;8.07;1.23;;;;;;;23.20;60.82;100326.38;5074377;28;20197;-72
2021/07/06 09:16:21;;;;;;;1.60;0.80;;;;;;;23.18;59.33;100298.50;5056690;28;20199;-72
2021/07/06 09:18:47;;;;;;;1.23;0.80;;;;;;;23.01;59.83;100302.25;5056559;28;20202;-72
2021/07/06 09:21:13;;;;;;;3.23;0.90;;;;;;;23.11;60.20;100286.59;5074827;28;20174;-72
2021/07/06 09:23:48;;;;;;;1.37;0.90;;;;;;;23.24;60.79;100303.22;5056607;28;20175;-72
2021/07/06 09:26:22;;;;;;;2.80;1.00;;;;;;;23.15;60.18;100296.13;5057339;28;20170;-71
2021/07/06 09:28:52;;;;;;;6.27;1.00;;;;;;;23.18;60.03;100293.03;5074342;28;20214;-70
2021/07/06 09:31:24;;;;;;;1.97;0.93;;;;;;;23.19;59.28;100302.06;5056579;28;20663;-71
2021/07/06 09:34:00;;;;;;;3.80;1.10;;;;;;;23.28;59.57;100304.56;5074530;28;20539;-71
2021/07/06 09:36:27;;;;;;;1.27;1.17;;;;;;;23.18;59.92;100306.66;5040348;28;20163;-72
2021/07/06 09:39:00;;;;;;;2.30;0.93;;;;;;;23.65;60.38;100290.31;5074185;28;20512;-71
2021/07/06 09:41:25;;;;;;;1.77;1.10;;;;;;;23.63;58.48;100296.97;5056310;28;20229;-71
2021/07/06 09:43:50;;;;;;;2.50;1.30;;;;;;;23.88;58.26;100287.63;5074276;28;20175;-71
2021/07/06 09:46:16;;;;;;;1.57;1.10;;;;;;;24.16;58.14;100282.50;5073553;28;20252;-71
2021/07/06 09:48:44;;;;;;;3.40;1.20;;;;;;;24.56;58.07;100294.97;5055943;28;20203;-71
2021/07/06 09:51:20;;;;;;;3.57;1.23;;;;;;;24.60;56.62;100290.84;5074547;28;20225;-72
2021/07/06 09:53:48;;;;;;;3.43;1.20;;;;;;;24.30;57.03;100291.78;5040358;28;20277;-71
2021/07/06 09:56:16;;;;;;;3.07;1.30;;;;;;;24.41;57.07;100287.75;5056283;28;20174;-72
2021/07/06 09:58:50;;;;;;;5.17;1.20;;;;;;;24.48;56.64;100286.84;5057464;28;20171;-71
2021/07/06 10:01:15;;;;;;;2.43;1.17;;;;;;;24.66;56.21;100282.94;5073889;28;20193;-71
2021/07/06 10:03:42;;;;;;;4.97;1.20;;;;;;;24.64;55.84;100280.41;5074634;28;20663;-71
2021/07/06 10:06:07;;;;;;;5.17;1.10;;;;;;;25.08;55.05;100291.38;5056219;28;20186;-71
2021/07/06 10:08:33;;;;;;;4.43;1.23;;;;;;;24.52;56.40;100292.75;5073810;28;20199;-72
2021/07/06 10:10:59;;;;;;;4.07;1.30;;;;;;;24.89;55.12;100290.00;5056660;28;20189;-72
2021/07/06 10:13:24;;;;;;;8.67;1.30;;;;;;;25.27;54.73;100289.94;5058452;28;20562;-70
2021/07/06 10:15:49;;;;;;;3.37;1.30;;;;;;;25.92;53.81;100280.06;5058204;28;20179;-72
2021/07/06 10:18:15;;;;;;;1.63;1.10;;;;;;;25.88;52.49;100278.75;5057598;28;20194;-71
2021/07/06 10:20:40;;;;;;;4.07;1.43;;;;;;;26.94;50.87;100281.41;5055895;28;20182;-72
2021/07/06 10:23:06;;;;;;;2.40;1.30;;;;;;;26.28;49.85;100280.84;5055743;28;20175;-72
2021/07/06 10:25:33;;;;;;;2.33;0.90;;;;;;;26.19;49.68;100282.03;5055736;28;20170;-72
2021/07/06 10:28:00;;;;;;;2.33;1.10;;;;;;;26.90;47.66;100280.13;5056348;28;20209;-72
2021/07/06 10:30:40;;;;;;;2.00;1.00;;;;;;;25.74;50.43;100262.22;5038519;28;20305;-72
2021/07/06 10:33:12;;;;;;;1.97;1.00;;;;;;;26.53;50.05;100291.44;5073113;28;20166;-71
2021/07/06 10:35:39;;;;;;;2.97;1.00;;;;;;;26.14;48.78;100273.56;5072884;28;20201;-72
2021/07/06 10:38:26;;;;;;;9.83;0.93;;;;;;;25.85;48.86;100269.91;5073315;28;20201;-72
2021/07/06 10:40:52;;;;;;;4.27;0.90;;;;;;;26.45;48.36;100265.91;5073269;28;20643;-71
2021/07/06 10:43:42;;;;;;;1.90;0.70;;;;;;;25.74;49.96;100267.69;5055006;28;20214;-71
2021/07/06 10:46:19;;;;;;;4.37;1.17;;;;;;;26.03;49.90;100272.22;5054734;28;20217;-71
2021/07/06 10:48:46;;;;;;;4.37;1.00;;;;;;;26.37;47.88;100268.75;5073014;28;20214;-71
2021/07/06 10:51:33;;;;;;;5.30;0.83;;;;;;;26.91;45.76;100276.34;5054809;28;20175;-71
2021/07/06 10:54:11;;;;;;;1.43;0.90;;;;;;;26.84;46.25;100267.25;5073121;28;20643;-72
2021/07/06 10:56:44;;;;;;;4.63;0.90;;;;;;;26.47;48.25;100260.22;5055942;28;20198;-72
2021/07/06 10:59:30;;;;;;;5.10;0.93;;;;;;;26.54;47.80;100257.53;5069060;28;20161;-71
2021/07/06 11:02:07;;;;;;;3.00;0.80;;;;;;;26.62;48.04;100251.91;5088178;28;20278;-70
2021/07/06 11:04:50;;;;;;;3.50;1.00;;;;;;;27.12;45.58;100261.75;5096095;28;20223;-71
2021/07/06 11:07:33;;;;;;;0.77;0.70;;;;;;;26.90;45.86;100254.66;5079492;28;20194;-70
2021/07/06 11:09:59;;;;;;;1.53;0.77;;;;;;;27.38;45.50;100258.31;5076534;28;20728;-71
2021/07/06 11:12:32;;;;;;;2.20;0.90;;;;;;;28.29;43.79;100254.19;5058569;28;20179;-72
2021/07/06 11:14:59;;;;;;;2.73;0.80;;;;;;;28.68;43.45;100257.13;5058494;28;20655;-72
2021/07/06 11:17:34;;;;;;;2.85;0.70;;;;;;;29.13;40.84;100255.38;5041534;28;20194;-72
2021/07/06 11:20:03;;;;;;;2.88;0.98;;;;;;;28.27;42.07;100250.81;5075909;28;20598;-73